sensor_id;sensor_type;location;lat;lon;timestamp;P1;durP1;ratioP1;P2;durP2;ratioP2
67272;SDS011;54190;49.770;9.250;2023-05-02T00:02:08;10.43;;;7.80;;
67272;SDS011;54190;49.770;9.250;2023-05-02T00:04:33;11.33;;;9.53;;
67272;SDS011;54190;49.770;9.250;2023-05-02T00:06:59;10.50;;;8.37;;
67272;SDS011;54190;49.770;9.250;2023-05-02T00:09:25;10.00;;;7.90;;
67272;SDS011;54190;49.770;9.250;2023-05-02T00:11:50;10.67;;;7.43;;
67272;SDS011;54190;49.770;9.250;2023-05-02T00:14:16;9.17;;;7.33;;
67272;SDS011;54190;49.770;9.250;2023-05-02T00:16:41;8.00;;;7.07;;
67272;SDS011;54190;49.770;9.250;2023-05-02T00:19:07;8.13;;;6.30;;
67272;SDS011;54190;49.770;9.250;2023-05-02T00:21:33;10.87;;;6.43;;
67272;SDS011;54190;49.770;9.250;2023-05-02T00:23:58;8.13;;;6.20;;
67272;SDS011;54190;49.770;9.250;2023-05-02T00:26:24;8.00;;;6.40;;
67272;SDS011;54190;49.770;9.250;2023-05-02T00:28:51;8.90;;;6.27;;
67272;SDS011;54190;49.770;9.250;2023-05-02T00:31:16;7.80;;;6.13;;
67272;SDS011;54190;49.770;9.250;2023-05-02T00:33:42;7.60;;;6.00;;
67272;SDS011;54190;49.770;9.250;2023-05-02T00:36:15;7.77;;;6.13;;
67272;SDS011;54190;49.770;9.250;2023-05-02T00:38:42;7.80;;;6.57;;
67272;SDS011;54190;49.770;9.250;2023-05-02T00:41:08;7.47;;;6.30;;
67272;SDS011;54190;49.770;9.250;2023-05-02T00:43:33;7.93;;;6.80;;
67272;SDS011;54190;49.770;9.250;2023-05-02T00:46:00;8.37;;;6.23;;
67272;SDS011;54190;49.770;9.250;2023-05-02T00:48:26;7.87;;;6.60;;
67272;SDS011;54190;49.770;9.250;2023-05-02T00:50:52;9.37;;;7.17;;
67272;SDS011;54190;49.770;9.250;2023-05-02T00:53:17;8.00;;;6.20;;
67272;SDS011;54190;49.770;9.250;2023-05-02T00:55:43;8.80;;;6.30;;
67272;SDS011;54190;49.770;9.250;2023-05-02T00:58:10;11.20;;;6.50;;
67272;SDS011;54190;49.770;9.250;2023-05-02T01:11:51;7.80;;;6.67;;
67272;SDS011;54190;49.770;9.250;2023-05-02T01:14:28;11.83;;;7.27;;
67272;SDS011;54190;49.770;9.250;2023-05-02T01:16:57;9.60;;;7.33;;
67272;SDS011;54190;49.770;9.250;2023-05-02T01:19:35;7.13;;;6.20;;
67272;SDS011;54190;49.770;9.250;2023-05-02T01:22:06;8.17;;;6.60;;
67272;SDS011;54190;49.770;9.250;2023-05-02T01:24:37;8.00;;;6.90;;
67272;SDS011;54190;49.770;9.250;2023-05-02T01:27:27;8.43;;;6.30;;
67272;SDS011;54190;49.770;9.250;2023-05-02T01:30:01;7.87;;;6.13;;
67272;SDS011;54190;49.770;9.250;2023-05-02T01:32:28;8.23;;;6.17;;
67272;SDS011;54190;49.770;9.250;2023-05-02T01:34:57;8.13;;;6.50;;
67272;SDS011;54190;49.770;9.250;2023-05-02T01:37:25;8.10;;;6.30;;
67272;SDS011;54190;49.770;9.250;2023-05-02T01:39:51;7.00;;;6.10;;
67272;SDS011;54190;49.770;9.250;2023-05-02T01:42:19;7.47;;;6.50;;
67272;SDS011;54190;49.770;9.250;2023-05-02T01:44:46;8.50;;;6.20;;
67272;SDS011;54190;49.770;9.250;2023-05-02T01:47:14;7.77;;;6.30;;
67272;SDS011;54190;49.770;9.250;2023-05-02T01:49:41;8.90;;;6.60;;
67272;SDS011;54190;49.770;9.250;2023-05-02T01:52:10;8.83;;;6.27;;
67272;SDS011;54190;49.770;9.250;2023-05-02T01:54:37;8.30;;;6.90;;
67272;SDS011;54190;49.770;9.250;2023-05-02T01:57:06;8.77;;;6.03;;
67272;SDS011;54190;49.770;9.250;2023-05-02T01:59:34;7.10;;;6.40;;
67272;SDS011;54190;49.770;9.250;2023-05-02T02:02:02;6.87;;;5.90;;
67272;SDS011;54190;49.770;9.250;2023-05-02T02:04:29;10.43;;;6.20;;
67272;SDS011;54190;49.770;9.250;2023-05-02T02:06:57;6.83;;;6.03;;
67272;SDS011;54190;49.770;9.250;2023-05-02T02:09:27;7.03;;;5.87;;
67272;SDS011;54190;49.770;9.250;2023-05-02T02:14:49;7.33;;;5.90;;
67272;SDS011;54190;49.770;9.250;2023-05-02T02:17:21;7.87;;;6.73;;
67272;SDS011;54190;49.770;9.250;2023-05-02T02:19:51;10.70;;;6.30;;
67272;SDS011;54190;49.770;9.250;2023-05-02T02:22:19;7.63;;;5.60;;
67272;SDS011;54190;49.770;9.250;2023-05-02T02:24:45;7.03;;;6.03;;
67272;SDS011;54190;49.770;9.250;2023-05-02T02:27:12;10.50;;;6.70;;
67272;SDS011;54190;49.770;9.250;2023-05-02T02:29:38;9.43;;;6.90;;
67272;SDS011;54190;49.770;9.250;2023-05-02T02:32:04;6.93;;;6.23;;
67272;SDS011;54190;49.770;9.250;2023-05-02T02:34:30;8.90;;;6.93;;
67272;SDS011;54190;49.770;9.250;2023-05-02T02:36:57;11.63;;;7.50;;
67272;SDS011;54190;49.770;9.250;2023-05-02T02:42:27;6.77;;;5.87;;
67272;SDS011;54190;49.770;9.250;2023-05-02T02:45:08;7.80;;;6.50;;
67272;SDS011;54190;49.770;9.250;2023-05-02T02:50:35;9.73;;;7.03;;
67272;SDS011;54190;49.770;9.250;2023-05-02T02:53:19;8.67;;;7.17;;
67272;SDS011;54190;49.770;9.250;2023-05-02T02:55:56;8.07;;;6.50;;
67272;SDS011;54190;49.770;9.250;2023-05-02T02:58:30;9.80;;;7.10;;
67272;SDS011;54190;49.770;9.250;2023-05-02T03:01:06;7.20;;;5.90;;
67272;SDS011;54190;49.770;9.250;2023-05-02T03:03:38;7.27;;;6.07;;
67272;SDS011;54190;49.770;9.250;2023-05-02T03:06:05;9.40;;;6.40;;
67272;SDS011;54190;49.770;9.250;2023-05-02T03:08:40;8.20;;;6.70;;
67272;SDS011;54190;49.770;9.250;2023-05-02T03:11:11;7.00;;;6.30;;
67272;SDS011;54190;49.770;9.250;2023-05-02T03:13:36;9.43;;;7.10;;
67272;SDS011;54190;49.770;9.250;2023-05-02T03:19:02;8.60;;;7.13;;
67272;SDS011;54190;49.770;9.250;2023-05-02T03:21:28;9.63;;;7.00;;
67272;SDS011;54190;49.770;9.250;2023-05-02T03:24:04;9.67;;;7.13;;
67272;SDS011;54190;49.770;9.250;2023-05-02T03:26:30;9.73;;;6.90;;
67272;SDS011;54190;49.770;9.250;2023-05-02T03:28:56;8.87;;;7.07;;
67272;SDS011;54190;49.770;9.250;2023-05-02T03:31:27;8.83;;;6.80;;
67272;SDS011;54190;49.770;9.250;2023-05-02T03:33:53;7.37;;;6.43;;
67272;SDS011;54190;49.770;9.250;2023-05-02T03:36:19;8.40;;;6.77;;
67272;SDS011;54190;49.770;9.250;2023-05-02T03:38:45;9.73;;;6.90;;
67272;SDS011;54190;49.770;9.250;2023-05-02T03:41:11;8.37;;;6.63;;
67272;SDS011;54190;49.770;9.250;2023-05-02T03:43:38;9.20;;;6.70;;
67272;SDS011;54190;49.770;9.250;2023-05-02T03:46:05;10.87;;;6.83;;
67272;SDS011;54190;49.770;9.250;2023-05-02T03:48:34;8.00;;;6.70;;
67272;SDS011;54190;49.770;9.250;2023-05-02T03:51:01;9.40;;;6.87;;
67272;SDS011;54190;49.770;9.250;2023-05-02T03:53:29;8.30;;;6.50;;
67272;SDS011;54190;49.770;9.250;2023-05-02T03:55:57;8.87;;;7.00;;
67272;SDS011;54190;49.770;9.250;2023-05-02T03:58:32;9.73;;;6.80;;
67272;SDS011;54190;49.770;9.250;2023-05-02T04:01:00;8.90;;;7.03;;
67272;SDS011;54190;49.770;9.250;2023-05-02T04:03:26;9.10;;;6.87;;
67272;SDS011;54190;49.770;9.250;2023-05-02T04:05:59;7.40;;;6.63;;
67272;SDS011;54190;49.770;9.250;2023-05-02T04:08:25;9.07;;;6.50;;
67272;SDS011;54190;49.770;9.250;2023-05-02T04:10:51;8.37;;;6.63;;
67272;SDS011;54190;49.770;9.250;2023-05-02T04:13:17;12.93;;;7.20;;
67272;SDS011;54190;49.770;9.250;2023-05-02T04:15:45;9.07;;;6.83;;
67272;SDS011;54190;49.770;9.250;2023-05-02T04:18:13;7.70;;;6.03;;
67272;SDS011;54190;49.770;9.250;2023-05-02T04:20:41;8.57;;;6.63;;
67272;SDS011;54190;49.770;9.250;2023-05-02T04:23:08;11.23;;;6.27;;
67272;SDS011;54190;49.770;9.250;2023-05-02T04:25:34;8.40;;;6.23;;
67272;SDS011;54190;49.770;9.250;2023-05-02T04:28:01;9.30;;;6.87;;
67272;SDS011;54190;49.770;9.250;2023-05-02T04:30:28;8.23;;;6.93;;
67272;SDS011;54190;49.770;9.250;2023-05-02T04:33:00;8.07;;;6.60;;
67272;SDS011;54190;49.770;9.250;2023-05-02T04:35:30;12.20;;;7.03;;
67272;SDS011;54190;49.770;9.250;2023-05-02T04:37:55;9.77;;;7.97;;
67272;SDS011;54190;49.770;9.250;2023-05-02T04:40:21;13.20;;;7.83;;
67272;SDS011;54190;49.770;9.250;2023-05-02T04:42:52;10.27;;;9.10;;
67272;SDS011;54190;49.770;9.250;2023-05-02T04:45:21;12.07;;;9.90;;
67272;SDS011;54190;49.770;9.250;2023-05-02T04:47:47;12.77;;;9.30;;
67272;SDS011;54190;49.770;9.250;2023-05-02T04:50:13;13.23;;;9.13;;
67272;SDS011;54190;49.770;9.250;2023-05-02T04:52:39;10.60;;;8.13;;
67272;SDS011;54190;49.770;9.250;2023-05-02T04:55:05;10.80;;;7.17;;
67272;SDS011;54190;49.770;9.250;2023-05-02T04:57:31;9.53;;;7.13;;
67272;SDS011;54190;49.770;9.250;2023-05-02T04:59:58;9.00;;;7.37;;
67272;SDS011;54190;49.770;9.250;2023-05-02T05:02:25;10.00;;;8.07;;
67272;SDS011;54190;49.770;9.250;2023-05-02T05:04:51;18.20;;;13.07;;
67272;SDS011;54190;49.770;9.250;2023-05-02T05:07:17;15.73;;;9.27;;
67272;SDS011;54190;49.770;9.250;2023-05-02T05:09:46;47.00;;;30.33;;
67272;SDS011;54190;49.770;9.250;2023-05-02T05:12:12;15.50;;;12.10;;
67272;SDS011;54190;49.770;9.250;2023-05-02T05:14:38;13.80;;;9.37;;
67272;SDS011;54190;49.770;9.250;2023-05-02T05:17:03;10.23;;;8.70;;
67272;SDS011;54190;49.770;9.250;2023-05-02T05:19:30;9.17;;;7.90;;
67272;SDS011;54190;49.770;9.250;2023-05-02T05:21:56;14.80;;;10.10;;
67272;SDS011;54190;49.770;9.250;2023-05-02T05:24:22;12.67;;;8.07;;
67272;SDS011;54190;49.770;9.250;2023-05-02T05:26:50;8.60;;;7.20;;
67272;SDS011;54190;49.770;9.250;2023-05-02T05:29:16;9.10;;;7.40;;
67272;SDS011;54190;49.770;9.250;2023-05-02T05:31:43;10.03;;;7.50;;
67272;SDS011;54190;49.770;9.250;2023-05-02T05:34:12;10.37;;;8.70;;
67272;SDS011;54190;49.770;9.250;2023-05-02T05:36:41;11.80;;;9.27;;
67272;SDS011;54190;49.770;9.250;2023-05-02T05:39:07;10.90;;;9.27;;
67272;SDS011;54190;49.770;9.250;2023-05-02T05:41:34;10.83;;;9.10;;
67272;SDS011;54190;49.770;9.250;2023-05-02T05:44:04;11.50;;;9.57;;
67272;SDS011;54190;49.770;9.250;2023-05-02T05:46:32;9.80;;;8.67;;
67272;SDS011;54190;49.770;9.250;2023-05-02T05:48:59;12.27;;;9.40;;
67272;SDS011;54190;49.770;9.250;2023-05-02T05:51:27;10.73;;;8.67;;
67272;SDS011;54190;49.770;9.250;2023-05-02T05:53:54;10.83;;;9.23;;
67272;SDS011;54190;49.770;9.250;2023-05-02T05:56:20;15.33;;;9.80;;
67272;SDS011;54190;49.770;9.250;2023-05-02T05:58:53;11.07;;;8.93;;
67272;SDS011;54190;49.770;9.250;2023-05-02T06:01:20;13.83;;;9.57;;
67272;SDS011;54190;49.770;9.250;2023-05-02T06:03:45;13.83;;;9.13;;
67272;SDS011;54190;49.770;9.250;2023-05-02T06:06:13;13.60;;;10.30;;
67272;SDS011;54190;49.770;9.250;2023-05-02T06:08:38;14.33;;;10.77;;
67272;SDS011;54190;49.770;9.250;2023-05-02T06:11:07;13.67;;;10.90;;
67272;SDS011;54190;49.770;9.250;2023-05-02T06:13:34;14.47;;;10.57;;
67272;SDS011;54190;49.770;9.250;2023-05-02T06:16:00;16.83;;;13.00;;
67272;SDS011;54190;49.770;9.250;2023-05-02T06:18:26;17.40;;;14.13;;
67272;SDS011;54190;49.770;9.250;2023-05-02T06:20:53;21.17;;;14.47;;
67272;SDS011;54190;49.770;9.250;2023-05-02T06:23:18;25.10;;;16.53;;
67272;SDS011;54190;49.770;9.250;2023-05-02T06:25:44;23.70;;;16.27;;
67272;SDS011;54190;49.770;9.250;2023-05-02T06:28:10;22.00;;;16.60;;
67272;SDS011;54190;49.770;9.250;2023-05-02T06:30:36;24.30;;;17.90;;
67272;SDS011;54190;49.770;9.250;2023-05-02T06:33:05;24.60;;;18.13;;
67272;SDS011;54190;49.770;9.250;2023-05-02T06:35:30;25.13;;;18.97;;
67272;SDS011;54190;49.770;9.250;2023-05-02T06:37:56;28.80;;;21.20;;
67272;SDS011;54190;49.770;9.250;2023-05-02T06:40:21;28.97;;;22.30;;
67272;SDS011;54190;49.770;9.250;2023-05-02T06:42:47;30.60;;;22.63;;
67272;SDS011;54190;49.770;9.250;2023-05-02T06:45:13;33.67;;;21.37;;
67272;SDS011;54190;49.770;9.250;2023-05-02T06:47:38;32.07;;;21.37;;
67272;SDS011;54190;49.770;9.250;2023-05-02T06:50:04;30.03;;;21.90;;
67272;SDS011;54190;49.770;9.250;2023-05-02T06:52:30;31.33;;;22.67;;
67272;SDS011;54190;49.770;9.250;2023-05-02T06:54:56;31.20;;;22.37;;
67272;SDS011;54190;49.770;9.250;2023-05-02T06:57:22;32.40;;;22.10;;
67272;SDS011;54190;49.770;9.250;2023-05-02T06:59:48;30.87;;;20.87;;
67272;SDS011;54190;49.770;9.250;2023-05-02T07:02:14;34.10;;;23.50;;
67272;SDS011;54190;49.770;9.250;2023-05-02T07:04:40;33.07;;;22.63;;
67272;SDS011;54190;49.770;9.250;2023-05-02T07:07:05;30.80;;;22.60;;
67272;SDS011;54190;49.770;9.250;2023-05-02T07:09:31;32.47;;;22.00;;
67272;SDS011;54190;49.770;9.250;2023-05-02T07:11:57;36.37;;;23.90;;
67272;SDS011;54190;49.770;9.250;2023-05-02T07:14:22;39.10;;;24.00;;
67272;SDS011;54190;49.770;9.250;2023-05-02T07:16:48;37.47;;;25.27;;
67272;SDS011;54190;49.770;9.250;2023-05-02T07:19:14;32.40;;;21.67;;
67272;SDS011;54190;49.770;9.250;2023-05-02T07:21:39;35.97;;;24.00;;
67272;SDS011;54190;49.770;9.250;2023-05-02T07:24:05;35.37;;;24.83;;
67272;SDS011;54190;49.770;9.250;2023-05-02T07:26:30;38.03;;;25.97;;
67272;SDS011;54190;49.770;9.250;2023-05-02T07:28:56;33.43;;;23.43;;
67272;SDS011;54190;49.770;9.250;2023-05-02T07:31:22;35.10;;;22.67;;
67272;SDS011;54190;49.770;9.250;2023-05-02T07:33:47;34.97;;;25.50;;
67272;SDS011;54190;49.770;9.250;2023-05-02T07:36:13;35.20;;;26.20;;
67272;SDS011;54190;49.770;9.250;2023-05-02T07:38:39;36.27;;;24.40;;
67272;SDS011;54190;49.770;9.250;2023-05-02T07:41:04;37.97;;;25.73;;
67272;SDS011;54190;49.770;9.250;2023-05-02T07:43:30;34.27;;;24.40;;
67272;SDS011;54190;49.770;9.250;2023-05-02T07:45:56;35.47;;;22.27;;
67272;SDS011;54190;49.770;9.250;2023-05-02T07:48:22;34.20;;;24.57;;
67272;SDS011;54190;49.770;9.250;2023-05-02T07:50:47;33.80;;;23.40;;
67272;SDS011;54190;49.770;9.250;2023-05-02T07:53:13;32.40;;;23.00;;
67272;SDS011;54190;49.770;9.250;2023-05-02T07:55:38;31.00;;;21.70;;
67272;SDS011;54190;49.770;9.250;2023-05-02T07:58:04;31.80;;;22.60;;
67272;SDS011;54190;49.770;9.250;2023-05-02T08:00:30;28.93;;;18.73;;
67272;SDS011;54190;49.770;9.250;2023-05-02T08:02:56;32.73;;;22.50;;
67272;SDS011;54190;49.770;9.250;2023-05-02T08:05:21;32.57;;;23.17;;
67272;SDS011;54190;49.770;9.250;2023-05-02T08:07:47;31.10;;;21.10;;
67272;SDS011;54190;49.770;9.250;2023-05-02T08:10:12;34.00;;;23.00;;
67272;SDS011;54190;49.770;9.250;2023-05-02T08:12:39;34.50;;;24.23;;
67272;SDS011;54190;49.770;9.250;2023-05-02T08:15:05;33.93;;;21.40;;
67272;SDS011;54190;49.770;9.250;2023-05-02T08:17:32;30.37;;;21.70;;
67272;SDS011;54190;49.770;9.250;2023-05-02T08:19:58;33.60;;;21.90;;
67272;SDS011;54190;49.770;9.250;2023-05-02T08:22:23;33.83;;;23.27;;
67272;SDS011;54190;49.770;9.250;2023-05-02T08:24:49;35.77;;;22.60;;
67272;SDS011;54190;49.770;9.250;2023-05-02T08:27:15;34.93;;;24.00;;
67272;SDS011;54190;49.770;9.250;2023-05-02T08:29:40;36.03;;;24.07;;
67272;SDS011;54190;49.770;9.250;2023-05-02T08:32:06;32.60;;;21.80;;
67272;SDS011;54190;49.770;9.250;2023-05-02T08:34:31;32.03;;;21.97;;
67272;SDS011;54190;49.770;9.250;2023-05-02T08:36:57;30.43;;;20.67;;
67272;SDS011;54190;49.770;9.250;2023-05-02T08:39:23;31.30;;;19.50;;
67272;SDS011;54190;49.770;9.250;2023-05-02T08:41:49;24.47;;;16.20;;
67272;SDS011;54190;49.770;9.250;2023-05-02T08:44:14;25.93;;;18.70;;
67272;SDS011;54190;49.770;9.250;2023-05-02T08:46:41;28.17;;;17.53;;
67272;SDS011;54190;49.770;9.250;2023-05-02T08:49:09;26.67;;;18.67;;
67272;SDS011;54190;49.770;9.250;2023-05-02T08:51:35;23.27;;;16.47;;
67272;SDS011;54190;49.770;9.250;2023-05-02T08:54:02;24.53;;;17.73;;
67272;SDS011;54190;49.770;9.250;2023-05-02T08:56:28;25.47;;;17.23;;
67272;SDS011;54190;49.770;9.250;2023-05-02T08:58:54;25.17;;;17.20;;
67272;SDS011;54190;49.770;9.250;2023-05-02T09:01:21;26.07;;;18.90;;
67272;SDS011;54190;49.770;9.250;2023-05-02T09:03:48;24.07;;;16.67;;
67272;SDS011;54190;49.770;9.250;2023-05-02T09:06:14;29.10;;;18.37;;
67272;SDS011;54190;49.770;9.250;2023-05-02T09:08:41;26.93;;;18.37;;
67272;SDS011;54190;49.770;9.250;2023-05-02T09:11:09;29.07;;;17.77;;
67272;SDS011;54190;49.770;9.250;2023-05-02T09:13:37;21.13;;;15.97;;
67272;SDS011;54190;49.770;9.250;2023-05-02T09:16:08;20.07;;;15.30;;
67272;SDS011;54190;49.770;9.250;2023-05-02T09:18:36;18.67;;;13.83;;
67272;SDS011;54190;49.770;9.250;2023-05-02T09:21:25;23.50;;;15.40;;
67272;SDS011;54190;49.770;9.250;2023-05-02T09:23:52;19.40;;;13.57;;
67272;SDS011;54190;49.770;9.250;2023-05-02T09:28:55;23.27;;;16.20;;
67272;SDS011;54190;49.770;9.250;2023-05-02T09:31:22;23.13;;;15.70;;
67272;SDS011;54190;49.770;9.250;2023-05-02T09:34:06;21.07;;;14.60;;
67272;SDS011;54190;49.770;9.250;2023-05-02T09:36:43;16.47;;;11.70;;
67272;SDS011;54190;49.770;9.250;2023-05-02T09:39:11;17.40;;;11.50;;
67272;SDS011;54190;49.770;9.250;2023-05-02T09:41:38;15.80;;;11.73;;
67272;SDS011;54190;49.770;9.250;2023-05-02T09:44:06;19.37;;;9.70;;
67272;SDS011;54190;49.770;9.250;2023-05-02T09:46:38;18.50;;;13.27;;
67272;SDS011;54190;49.770;9.250;2023-05-02T09:49:08;17.50;;;10.90;;
67272;SDS011;54190;49.770;9.250;2023-05-02T09:51:34;20.50;;;12.33;;
67272;SDS011;54190;49.770;9.250;2023-05-02T09:54:00;16.20;;;10.60;;
67272;SDS011;54190;49.770;9.250;2023-05-02T09:56:26;14.60;;;10.27;;
67272;SDS011;54190;49.770;9.250;2023-05-02T09:59:01;16.73;;;10.17;;
67272;SDS011;54190;49.770;9.250;2023-05-02T10:01:40;17.23;;;12.03;;
67272;SDS011;54190;49.770;9.250;2023-05-02T10:04:09;16.83;;;11.13;;
67272;SDS011;54190;49.770;9.250;2023-05-02T10:06:43;17.10;;;12.10;;
67272;SDS011;54190;49.770;9.250;2023-05-02T10:09:10;13.90;;;10.70;;
67272;SDS011;54190;49.770;9.250;2023-05-02T10:11:38;14.07;;;9.67;;
67272;SDS011;54190;49.770;9.250;2023-05-02T10:14:08;16.03;;;10.43;;
67272;SDS011;54190;49.770;9.250;2023-05-02T10:16:40;16.80;;;11.00;;
67272;SDS011;54190;49.770;9.250;2023-05-02T10:19:18;15.50;;;11.50;;
67272;SDS011;54190;49.770;9.250;2023-05-02T10:22:05;20.30;;;11.43;;
67272;SDS011;54190;49.770;9.250;2023-05-02T10:24:32;21.30;;;12.70;;
67272;SDS011;54190;49.770;9.250;2023-05-02T10:26:58;19.30;;;13.10;;
67272;SDS011;54190;49.770;9.250;2023-05-02T10:29:26;19.70;;;12.97;;
67272;SDS011;54190;49.770;9.250;2023-05-02T10:31:54;17.80;;;11.80;;
67272;SDS011;54190;49.770;9.250;2023-05-02T10:34:21;16.23;;;11.80;;
67272;SDS011;54190;49.770;9.250;2023-05-02T10:36:47;16.07;;;11.57;;
67272;SDS011;54190;49.770;9.250;2023-05-02T10:39:13;16.20;;;10.87;;
67272;SDS011;54190;49.770;9.250;2023-05-02T10:41:39;14.60;;;10.20;;
67272;SDS011;54190;49.770;9.250;2023-05-02T10:44:05;13.60;;;9.87;;
67272;SDS011;54190;49.770;9.250;2023-05-02T10:46:36;13.93;;;10.40;;
67272;SDS011;54190;49.770;9.250;2023-05-02T10:49:11;12.50;;;9.30;;
67272;SDS011;54190;49.770;9.250;2023-05-02T10:51:39;16.23;;;11.10;;
67272;SDS011;54190;49.770;9.250;2023-05-02T10:54:24;14.93;;;9.40;;
67272;SDS011;54190;49.770;9.250;2023-05-02T11:02:04;10.93;;;7.90;;
67272;SDS011;54190;49.770;9.250;2023-05-02T11:07:25;11.40;;;7.73;;
67272;SDS011;54190;49.770;9.250;2023-05-02T11:09:51;10.60;;;8.07;;
67272;SDS011;54190;49.770;9.250;2023-05-02T11:15:11;13.17;;;8.50;;
67272;SDS011;54190;49.770;9.250;2023-05-02T11:20:39;11.70;;;8.50;;
67272;SDS011;54190;49.770;9.250;2023-05-02T11:34:01;14.10;;;9.37;;
67272;SDS011;54190;49.770;9.250;2023-05-02T11:36:30;13.77;;;9.67;;
67272;SDS011;54190;49.770;9.250;2023-05-02T11:38:58;14.33;;;9.70;;
67272;SDS011;54190;49.770;9.250;2023-05-02T11:41:40;13.60;;;9.80;;
67272;SDS011;54190;49.770;9.250;2023-05-02T11:44:06;13.87;;;10.17;;
67272;SDS011;54190;49.770;9.250;2023-05-02T11:46:32;13.30;;;9.53;;
67272;SDS011;54190;49.770;9.250;2023-05-02T11:49:00;9.73;;;7.40;;
67272;SDS011;54190;49.770;9.250;2023-05-02T11:51:26;9.00;;;6.60;;
67272;SDS011;54190;49.770;9.250;2023-05-02T11:53:52;9.70;;;7.10;;
67272;SDS011;54190;49.770;9.250;2023-05-02T11:56:21;12.03;;;8.17;;
67272;SDS011;54190;49.770;9.250;2023-05-02T11:58:56;12.13;;;9.10;;
67272;SDS011;54190;49.770;9.250;2023-05-02T12:01:25;10.73;;;7.40;;
67272;SDS011;54190;49.770;9.250;2023-05-02T12:04:00;11.10;;;8.50;;
67272;SDS011;54190;49.770;9.250;2023-05-02T12:06:31;13.00;;;10.20;;
67272;SDS011;54190;49.770;9.250;2023-05-02T12:09:11;11.43;;;7.63;;
67272;SDS011;54190;49.770;9.250;2023-05-02T12:11:40;13.80;;;8.33;;
67272;SDS011;54190;49.770;9.250;2023-05-02T12:14:05;9.33;;;6.27;;
67272;SDS011;54190;49.770;9.250;2023-05-02T12:16:31;13.00;;;7.80;;
67272;SDS011;54190;49.770;9.250;2023-05-02T12:18:57;10.53;;;7.07;;
67272;SDS011;54190;49.770;9.250;2023-05-02T12:21:25;7.77;;;5.77;;
67272;SDS011;54190;49.770;9.250;2023-05-02T12:23:53;8.07;;;5.90;;
67272;SDS011;54190;49.770;9.250;2023-05-02T12:26:20;7.43;;;5.20;;
67272;SDS011;54190;49.770;9.250;2023-05-02T12:28:54;9.03;;;6.40;;
67272;SDS011;54190;49.770;9.250;2023-05-02T12:31:21;9.23;;;6.57;;
67272;SDS011;54190;49.770;9.250;2023-05-02T12:33:47;9.60;;;6.93;;
67272;SDS011;54190;49.770;9.250;2023-05-02T12:36:15;11.00;;;7.17;;
67272;SDS011;54190;49.770;9.250;2023-05-02T12:38:48;10.23;;;7.70;;
67272;SDS011;54190;49.770;9.250;2023-05-02T12:41:16;9.30;;;7.33;;
67272;SDS011;54190;49.770;9.250;2023-05-02T12:43:45;9.97;;;7.60;;
67272;SDS011;54190;49.770;9.250;2023-05-02T12:46:11;12.03;;;6.57;;
67272;SDS011;54190;49.770;9.250;2023-05-02T12:48:36;10.20;;;6.40;;
67272;SDS011;54190;49.770;9.250;2023-05-02T12:51:02;9.77;;;7.10;;
67272;SDS011;54190;49.770;9.250;2023-05-02T12:53:41;7.97;;;5.63;;
67272;SDS011;54190;49.770;9.250;2023-05-02T12:56:08;7.40;;;5.93;;
67272;SDS011;54190;49.770;9.250;2023-05-02T12:58:41;6.30;;;5.00;;
67272;SDS011;54190;49.770;9.250;2023-05-02T13:01:12;6.00;;;4.30;;
67272;SDS011;54190;49.770;9.250;2023-05-02T13:03:39;4.57;;;3.23;;
67272;SDS011;54190;49.770;9.250;2023-05-02T13:06:06;4.80;;;3.40;;
67272;SDS011;54190;49.770;9.250;2023-05-02T13:08:32;5.30;;;3.90;;
67272;SDS011;54190;49.770;9.250;2023-05-02T13:10:59;4.90;;;3.87;;
67272;SDS011;54190;49.770;9.250;2023-05-02T13:13:28;6.43;;;4.53;;
67272;SDS011;54190;49.770;9.250;2023-05-02T13:15:55;5.77;;;4.40;;
67272;SDS011;54190;49.770;9.250;2023-05-02T13:18:23;7.30;;;5.27;;
67272;SDS011;54190;49.770;9.250;2023-05-02T13:20:48;5.70;;;4.47;;
67272;SDS011;54190;49.770;9.250;2023-05-02T13:23:14;10.43;;;5.87;;
67272;SDS011;54190;49.770;9.250;2023-05-02T13:25:41;11.50;;;7.20;;
67272;SDS011;54190;49.770;9.250;2023-05-02T13:28:06;9.30;;;6.80;;
67272;SDS011;54190;49.770;9.250;2023-05-02T13:30:32;7.60;;;5.53;;
67272;SDS011;54190;49.770;9.250;2023-05-02T13:32:58;8.50;;;6.17;;
67272;SDS011;54190;49.770;9.250;2023-05-02T13:35:23;8.30;;;6.20;;
67272;SDS011;54190;49.770;9.250;2023-05-02T13:37:52;8.60;;;5.20;;
67272;SDS011;54190;49.770;9.250;2023-05-02T13:40:18;8.67;;;5.70;;
67272;SDS011;54190;49.770;9.250;2023-05-02T13:42:44;12.53;;;8.30;;
67272;SDS011;54190;49.770;9.250;2023-05-02T13:45:10;12.30;;;7.80;;
67272;SDS011;54190;49.770;9.250;2023-05-02T13:47:36;8.07;;;6.33;;
67272;SDS011;54190;49.770;9.250;2023-05-02T13:50:02;9.43;;;7.00;;
67272;SDS011;54190;49.770;9.250;2023-05-02T13:52:27;11.00;;;7.77;;
67272;SDS011;54190;49.770;9.250;2023-05-02T13:54:53;11.07;;;8.00;;
67272;SDS011;54190;49.770;9.250;2023-05-02T13:57:18;10.73;;;7.30;;
67272;SDS011;54190;49.770;9.250;2023-05-02T13:59:44;9.80;;;6.90;;
67272;SDS011;54190;49.770;9.250;2023-05-02T14:02:10;9.73;;;6.90;;
67272;SDS011;54190;49.770;9.250;2023-05-02T14:04:35;9.40;;;6.30;;
67272;SDS011;54190;49.770;9.250;2023-05-02T14:07:01;9.30;;;6.70;;
67272;SDS011;54190;49.770;9.250;2023-05-02T14:09:27;8.53;;;6.33;;
67272;SDS011;54190;49.770;9.250;2023-05-02T14:11:52;14.50;;;7.73;;
67272;SDS011;54190;49.770;9.250;2023-05-02T14:14:19;10.00;;;6.93;;
67272;SDS011;54190;49.770;9.250;2023-05-02T14:16:45;11.17;;;7.23;;
67272;SDS011;54190;49.770;9.250;2023-05-02T14:19:10;8.43;;;6.27;;
67272;SDS011;54190;49.770;9.250;2023-05-02T14:21:36;11.90;;;8.83;;
67272;SDS011;54190;49.770;9.250;2023-05-02T14:24:03;11.27;;;7.10;;
67272;SDS011;54190;49.770;9.250;2023-05-02T14:26:30;9.77;;;6.47;;
67272;SDS011;54190;49.770;9.250;2023-05-02T14:28:56;7.90;;;5.83;;
67272;SDS011;54190;49.770;9.250;2023-05-02T14:31:22;8.83;;;5.50;;
67272;SDS011;54190;49.770;9.250;2023-05-02T14:33:48;9.87;;;6.30;;
67272;SDS011;54190;49.770;9.250;2023-05-02T14:36:13;7.30;;;5.30;;
67272;SDS011;54190;49.770;9.250;2023-05-02T14:38:39;9.50;;;5.47;;
67272;SDS011;54190;49.770;9.250;2023-05-02T14:41:05;7.37;;;5.27;;
67272;SDS011;54190;49.770;9.250;2023-05-02T14:43:31;7.77;;;5.17;;
67272;SDS011;54190;49.770;9.250;2023-05-02T14:45:56;6.40;;;5.10;;
67272;SDS011;54190;49.770;9.250;2023-05-02T14:48:23;7.90;;;4.97;;
67272;SDS011;54190;49.770;9.250;2023-05-02T14:50:48;7.60;;;4.63;;
67272;SDS011;54190;49.770;9.250;2023-05-02T14:53:16;7.77;;;4.53;;
67272;SDS011;54190;49.770;9.250;2023-05-02T14:55:42;7.37;;;4.80;;
67272;SDS011;54190;49.770;9.250;2023-05-02T14:58:08;5.10;;;4.03;;
67272;SDS011;54190;49.770;9.250;2023-05-02T15:00:34;5.97;;;3.70;;
67272;SDS011;54190;49.770;9.250;2023-05-02T15:03:04;6.40;;;4.20;;
67272;SDS011;54190;49.770;9.250;2023-05-02T15:05:30;4.00;;;3.17;;
67272;SDS011;54190;49.770;9.250;2023-05-02T15:07:55;4.23;;;3.03;;
67272;SDS011;54190;49.770;9.250;2023-05-02T15:10:21;5.70;;;3.40;;
67272;SDS011;54190;49.770;9.250;2023-05-02T15:12:47;7.63;;;3.10;;
67272;SDS011;54190;49.770;9.250;2023-05-02T15:15:15;6.90;;;4.27;;
67272;SDS011;54190;49.770;9.250;2023-05-02T15:17:42;5.23;;;3.60;;
67272;SDS011;54190;49.770;9.250;2023-05-02T15:20:07;4.17;;;2.77;;
67272;SDS011;54190;49.770;9.250;2023-05-02T15:22:34;4.60;;;3.20;;
67272;SDS011;54190;49.770;9.250;2023-05-02T15:24:59;5.43;;;4.00;;
67272;SDS011;54190;49.770;9.250;2023-05-02T15:27:25;6.13;;;4.27;;
67272;SDS011;54190;49.770;9.250;2023-05-02T15:29:51;4.40;;;2.73;;